createdAt,value
2023-01-31T00:01:37.521Z,4.30
2023-01-31T00:04:11.919Z,4.10
2023-01-31T00:06:44.693Z,4.00
2023-01-31T00:09:13.172Z,4.37
2023-01-31T00:11:40.178Z,4.33
2023-01-31T00:14:07.849Z,3.77
2023-01-31T00:16:35.075Z,4.13
2023-01-31T00:19:02.563Z,5.97
2023-01-31T00:21:31.300Z,4.97
2023-01-31T00:24:00.055Z,5.57
2023-01-31T00:26:34.983Z,6.20
2023-01-31T00:29:03.655Z,5.80
2023-01-31T00:31:32.426Z,5.03
2023-01-31T00:33:59.893Z,6.37
2023-01-31T00:36:31.814Z,4.83
2023-01-31T00:39:00.434Z,6.47
2023-01-31T00:41:29.868Z,8.13
2023-01-31T00:43:57.611Z,8.07
2023-01-31T00:46:24.684Z,8.87
2023-01-31T00:48:52.300Z,9.67
2023-01-31T00:51:19.844Z,11.00
2023-01-31T00:53:47.240Z,10.70
2023-01-31T00:56:17.817Z,8.90
2023-01-31T00:58:44.880Z,6.93
2023-01-31T01:01:13.429Z,6.80
2023-01-31T01:03:41.841Z,7.70
2023-01-31T01:06:09.551Z,8.73
2023-01-31T01:08:37.795Z,8.63
2023-01-31T01:11:09.465Z,8.87
2023-01-31T01:13:36.790Z,9.03
2023-01-31T01:16:12.077Z,7.77
2023-01-31T01:18:39.264Z,7.40
2023-01-31T01:21:11.445Z,7.33
2023-01-31T01:23:39.349Z,7.40
2023-01-31T01:26:12.601Z,6.13
2023-01-31T01:28:39.402Z,5.13
2023-01-31T01:31:08.160Z,7.13
2023-01-31T01:33:36.337Z,4.57
2023-01-31T01:36:09.755Z,3.87
2023-01-31T01:38:37.920Z,4.20
2023-01-31T01:41:05.632Z,4.60
2023-01-31T01:43:51.494Z,3.70
2023-01-31T01:46:30.473Z,4.53
2023-01-31T01:49:03.731Z,3.70
2023-01-31T01:51:33.185Z,3.67
2023-01-31T01:54:03.837Z,5.13
2023-01-31T01:56:34.023Z,3.47
2023-01-31T01:59:08.462Z,4.57
2023-01-31T02:01:37.760Z,4.67
2023-01-31T02:04:07.376Z,4.70
2023-01-31T02:06:34.539Z,3.70
2023-01-31T02:09:02.205Z,4.30
2023-01-31T02:11:30.844Z,3.90
2023-01-31T02:14:03.987Z,4.47
2023-01-31T02:16:31.395Z,4.30
2023-01-31T02:18:58.950Z,4.70
2023-01-31T02:21:37.984Z,4.83
2023-01-31T02:24:08.613Z,4.10
2023-01-31T02:26:41.996Z,4.67
2023-01-31T02:29:11.796Z,3.97
2023-01-31T02:31:44.806Z,4.23
2023-01-31T02:34:30.862Z,4.70
2023-01-31T02:37:16.890Z,4.23
2023-01-31T02:39:53.808Z,5.77
2023-01-31T02:42:26.936Z,5.00
2023-01-31T02:45:00.801Z,4.67
2023-01-31T02:47:27.933Z,4.73
2023-01-31T02:50:13.883Z,4.63
2023-01-31T02:52:44.121Z,4.13
2023-01-31T02:55:33.231Z,4.47
2023-01-31T02:58:02.312Z,4.57
2023-01-31T03:00:32.210Z,4.17
2023-01-31T03:02:58.997Z,4.30
2023-01-31T03:05:26.389Z,3.70
2023-01-31T03:07:59.889Z,5.30
2023-01-31T03:10:38.697Z,4.27
2023-01-31T03:13:20.747Z,4.87
2023-01-31T03:16:42.874Z,4.00
2023-01-31T03:19:34.454Z,5.43
2023-01-31T03:22:07.858Z,5.10
2023-01-31T03:24:35.339Z,5.03
2023-01-31T03:27:02.825Z,5.37
2023-01-31T03:29:35.025Z,4.87
2023-01-31T03:32:08.993Z,5.33
2023-01-31T03:34:36.240Z,4.33
2023-01-31T03:37:15.545Z,4.70
2023-01-31T03:40:04.708Z,4.33
2023-01-31T03:42:45.142Z,5.70
2023-01-31T03:45:29.385Z,4.93
2023-01-31T03:47:59.390Z,4.00
2023-01-31T03:50:32.361Z,4.83
2023-01-31T03:53:18.258Z,5.20
2023-01-31T03:56:02.629Z,6.03
2023-01-31T03:58:32.815Z,4.70
2023-01-31T04:01:02.484Z,5.47
2023-01-31T04:03:50.911Z,5.33
2023-01-31T04:06:17.767Z,5.33
2023-01-31T04:08:44.683Z,5.37
2023-01-31T04:11:14.161Z,4.83
2023-01-31T04:13:42.501Z,5.63
2023-01-31T04:16:09.381Z,7.27
2023-01-31T04:18:38.065Z,5.87
2023-01-31T04:21:05.792Z,6.00
2023-01-31T04:23:33.261Z,5.93
2023-01-31T04:26:00.148Z,5.80
2023-01-31T04:28:26.995Z,6.17
2023-01-31T04:30:54.628Z,6.33
2023-01-31T04:33:21.971Z,6.47
2023-01-31T04:35:50.419Z,6.43
2023-01-31T04:38:17.237Z,6.27
2023-01-31T04:40:44.091Z,6.07
2023-01-31T04:43:10.920Z,5.73
2023-01-31T04:45:37.696Z,6.63
2023-01-31T04:48:04.815Z,6.33
2023-01-31T04:50:31.787Z,6.33
2023-01-31T04:52:58.638Z,6.30
2023-01-31T04:55:26.888Z,6.90
2023-01-31T04:57:54.085Z,6.40
2023-01-31T05:00:21.100Z,6.73
2023-01-31T05:02:48.109Z,6.27
2023-01-31T05:05:14.976Z,6.80
2023-01-31T05:07:42.937Z,7.00
2023-01-31T05:10:10.834Z,6.97
2023-01-31T05:12:37.664Z,7.67
2023-01-31T05:15:07.378Z,6.90
2023-01-31T05:17:34.971Z,7.50
2023-01-31T05:20:01.895Z,7.20
2023-01-31T05:22:28.650Z,7.90
2023-01-31T05:24:57.633Z,7.07
2023-01-31T05:27:25.557Z,7.70
2023-01-31T05:29:52.877Z,7.70
2023-01-31T05:32:19.946Z,7.07
2023-01-31T05:34:46.807Z,7.70
2023-01-31T05:37:13.644Z,8.97
2023-01-31T05:39:40.551Z,7.93
2023-01-31T05:42:07.344Z,7.93
2023-01-31T05:44:34.213Z,8.83
2023-01-31T05:47:04.560Z,9.77
2023-01-31T05:49:33.526Z,7.70
2023-01-31T05:52:01.109Z,7.77
2023-01-31T05:54:28.149Z,7.73
2023-01-31T05:56:54.980Z,8.50
2023-01-31T05:59:21.992Z,8.90
2023-01-31T06:01:48.962Z,8.87
2023-01-31T06:04:15.916Z,8.67
2023-01-31T06:06:42.976Z,9.10
2023-01-31T06:09:09.810Z,8.20
2023-01-31T06:11:36.595Z,7.80
2023-01-31T06:14:03.595Z,9.40
2023-01-31T06:16:30.844Z,9.47
2023-01-31T06:18:57.839Z,8.67
2023-01-31T06:21:24.697Z,7.50
2023-01-31T06:23:51.474Z,8.27
2023-01-31T06:26:18.329Z,8.33
2023-01-31T06:28:46.326Z,8.57
2023-01-31T06:31:13.556Z,8.13
2023-01-31T06:33:46.967Z,9.13
2023-01-31T06:36:18.662Z,8.70
2023-01-31T06:38:49.881Z,9.13
2023-01-31T06:41:16.713Z,8.63
2023-01-31T06:43:43.466Z,8.60
2023-01-31T06:46:10.377Z,8.73
2023-01-31T06:48:37.182Z,9.50
2023-01-31T06:51:04.152Z,11.13
2023-01-31T06:53:31.412Z,7.43
2023-01-31T06:55:58.320Z,8.63
2023-01-31T06:58:25.175Z,8.37
2023-01-31T07:00:52.033Z,7.73
2023-01-31T07:03:19.485Z,8.40
2023-01-31T07:05:46.706Z,8.03
2023-01-31T07:08:14.646Z,8.30
2023-01-31T07:10:41.668Z,8.40
2023-01-31T07:13:08.520Z,7.80
2023-01-31T07:15:35.507Z,6.97
2023-01-31T07:18:14.814Z,7.60
2023-01-31T07:20:44.837Z,6.60
2023-01-31T07:23:35.203Z,7.27
2023-01-31T07:26:04.609Z,8.00
2023-01-31T07:28:32.267Z,7.53
2023-01-31T07:31:11.735Z,7.90
2023-01-31T07:33:53.979Z,6.60
2023-01-31T07:36:29.927Z,13.07
2023-01-31T07:39:03.604Z,16.87
2023-01-31T07:41:44.720Z,8.03
2023-01-31T07:44:20.396Z,8.63
2023-01-31T07:46:54.750Z,7.67
2023-01-31T07:49:24.308Z,8.23
2023-01-31T07:51:56.079Z,7.20
2023-01-31T07:54:32.091Z,7.10
2023-01-31T07:56:59.007Z,8.33
2023-01-31T07:59:25.772Z,6.30
2023-01-31T08:02:11.228Z,6.37
2023-01-31T08:04:38.253Z,6.87
2023-01-31T08:07:06.960Z,6.77
2023-01-31T08:09:34.105Z,6.40
2023-01-31T08:12:00.863Z,6.93
2023-01-31T08:14:32.968Z,6.23
2023-01-31T08:16:59.946Z,6.90
2023-01-31T08:19:26.918Z,6.43
2023-01-31T08:22:12.555Z,8.20
2023-01-31T08:24:39.506Z,5.43
2023-01-31T08:27:06.322Z,7.00
2023-01-31T08:29:33.335Z,7.07
2023-01-31T08:32:00.762Z,7.77
2023-01-31T08:34:28.007Z,7.07
2023-01-31T08:36:55.244Z,7.00
2023-01-31T08:39:22.061Z,7.27
2023-01-31T08:41:48.903Z,5.97
2023-01-31T08:44:15.831Z,5.83
2023-01-31T08:46:42.780Z,6.37
2023-01-31T08:49:11.586Z,6.30
2023-01-31T08:51:38.453Z,5.57
2023-01-31T08:54:05.365Z,6.23
2023-01-31T08:56:32.568Z,5.83
2023-01-31T08:59:00.717Z,7.00
2023-01-31T09:01:27.850Z,6.20
2023-01-31T09:03:57.351Z,5.97
2023-01-31T09:06:27.037Z,6.57
2023-01-31T09:08:55.867Z,6.07
2023-01-31T09:11:22.605Z,6.33
2023-01-31T09:13:51.668Z,5.53
2023-01-31T09:16:19.790Z,5.23
2023-01-31T09:18:47.264Z,5.53
2023-01-31T09:21:17.704Z,5.37
2023-01-31T09:23:45.380Z,5.40
2023-01-31T09:26:12.941Z,4.77
2023-01-31T09:28:42.792Z,5.37
2023-01-31T09:31:15.616Z,5.07
2023-01-31T09:33:46.867Z,5.30
2023-01-31T09:36:19.210Z,5.67
2023-01-31T09:38:46.391Z,4.70
2023-01-31T09:41:33.898Z,4.37
2023-01-31T09:44:19.543Z,4.33
2023-01-31T09:47:06.630Z,5.50
2023-01-31T09:49:44.328Z,4.50
2023-01-31T09:52:11.951Z,4.50
2023-01-31T09:54:40.876Z,5.40
2023-01-31T09:57:26.562Z,5.30
2023-01-31T09:59:59.260Z,5.00
2023-01-31T10:02:28.817Z,5.30
2023-01-31T10:05:11.547Z,5.87
2023-01-31T10:08:17.749Z,4.10
2023-01-31T10:10:58.494Z,4.63
2023-01-31T10:13:36.871Z,5.63
2023-01-31T10:16:12.322Z,4.93
2023-01-31T10:18:43.235Z,4.33
2023-01-31T10:21:15.236Z,5.73
2023-01-31T10:23:56.248Z,4.67
2023-01-31T10:26:29.249Z,5.40
2023-01-31T10:29:10.200Z,5.47
2023-01-31T10:32:04.799Z,5.10
2023-01-31T10:34:43.089Z,5.53
2023-01-31T10:37:57.448Z,5.43
2023-01-31T10:40:33.134Z,5.40
2023-01-31T10:43:12.330Z,5.43
2023-01-31T10:45:39.130Z,6.53
2023-01-31T10:48:16.812Z,5.47
2023-01-31T10:51:06.178Z,6.47
2023-01-31T10:54:04.861Z,6.80
2023-01-31T10:56:45.668Z,6.70
2023-01-31T10:59:18.245Z,6.57
2023-01-31T11:01:45.298Z,7.13
2023-01-31T11:04:24.290Z,7.40
2023-01-31T11:06:51.845Z,6.40
2023-01-31T11:09:45.948Z,7.43
2023-01-31T11:12:12.815Z,6.77
2023-01-31T11:14:39.661Z,6.40
2023-01-31T11:17:15.506Z,7.33
2023-01-31T11:19:51.361Z,8.30
2023-01-31T11:22:28.633Z,6.43
2023-01-31T11:24:57.351Z,7.00
2023-01-31T11:27:44.150Z,7.40
2023-01-31T11:30:51.623Z,7.43
2023-01-31T11:34:10.993Z,7.70
2023-01-31T11:36:47.844Z,8.30
2023-01-31T11:39:32.022Z,7.67
2023-01-31T11:42:16.060Z,8.00
2023-01-31T11:45:02.902Z,7.53
2023-01-31T11:47:52.875Z,8.07
2023-01-31T11:50:28.173Z,9.23
2023-01-31T11:52:58.476Z,7.70
2023-01-31T11:55:25.994Z,9.10
2023-01-31T11:57:59.460Z,7.77
2023-01-31T12:00:30.168Z,8.20
2023-01-31T12:03:08.976Z,9.27
2023-01-31T12:05:40.543Z,9.70
2023-01-31T12:08:27.857Z,10.00
2023-01-31T12:10:59.573Z,9.67
2023-01-31T12:13:28.870Z,8.90
2023-01-31T12:16:05.186Z,9.83
2023-01-31T12:18:44.499Z,9.37
2023-01-31T12:21:27.556Z,10.23
2023-01-31T12:24:00.140Z,10.07
2023-01-31T12:26:48.443Z,9.87
2023-01-31T12:29:25.711Z,9.93
2023-01-31T12:32:01.183Z,8.83
2023-01-31T12:35:00.709Z,9.40
2023-01-31T12:37:51.276Z,9.43
2023-01-31T12:40:36.928Z,8.93
2023-01-31T12:43:13.892Z,8.67
2023-01-31T12:46:11.460Z,9.27
2023-01-31T12:48:48.508Z,9.20
2023-01-31T12:51:33.235Z,8.83
2023-01-31T12:54:06.968Z,8.90
2023-01-31T12:56:51.442Z,8.83
2023-01-31T12:59:56.314Z,8.57
2023-01-31T13:03:01.147Z,8.23
2023-01-31T13:05:30.929Z,9.57
2023-01-31T13:08:17.555Z,11.00
2023-01-31T13:10:46.078Z,9.27
2023-01-31T13:13:32.062Z,11.70
2023-01-31T13:16:13.899Z,11.77
2023-01-31T13:18:43.226Z,9.87
2023-01-31T13:21:16.365Z,13.60
2023-01-31T13:23:52.374Z,14.10
2023-01-31T13:26:36.146Z,13.47
2023-01-31T13:29:43.632Z,13.33
2023-01-31T13:32:18.972Z,13.57
2023-01-31T13:35:07.672Z,12.47
2023-01-31T13:37:39.799Z,14.20
2023-01-31T13:40:24.947Z,12.77
2023-01-31T13:42:53.487Z,12.53
2023-01-31T13:45:25.903Z,11.50
2023-01-31T13:48:07.533Z,11.53
2023-01-31T13:50:47.103Z,12.73
2023-01-31T13:53:21.850Z,14.30
2023-01-31T13:55:50.588Z,12.93
2023-01-31T13:58:22.454Z,14.20
2023-01-31T14:00:59.231Z,13.17
2023-01-31T14:03:26.558Z,13.67
2023-01-31T14:05:54.538Z,11.67
2023-01-31T14:08:39.261Z,12.40
2023-01-31T14:11:15.502Z,12.93
2023-01-31T14:13:53.634Z,12.77
2023-01-31T14:16:43.768Z,12.57
2023-01-31T14:19:19.715Z,11.93
2023-01-31T14:22:13.933Z,13.13
2023-01-31T14:24:57.102Z,12.13
2023-01-31T14:27:29.248Z,12.70
2023-01-31T14:30:05.559Z,12.77
2023-01-31T14:32:45.467Z,11.50
2023-01-31T14:35:14.987Z,11.77
2023-01-31T14:38:17.048Z,11.67
2023-01-31T14:41:07.689Z,10.77
2023-01-31T14:43:42.274Z,11.33
2023-01-31T14:46:35.304Z,9.30
2023-01-31T14:49:26.656Z,10.30
2023-01-31T14:52:18.469Z,10.30
2023-01-31T14:54:57.437Z,10.83
2023-01-31T14:57:31.152Z,10.27
2023-01-31T15:00:06.793Z,10.10
2023-01-31T15:02:36.749Z,10.47
2023-01-31T15:05:09.193Z,10.53
2023-01-31T15:07:40.542Z,10.60
2023-01-31T15:10:45.857Z,10.70
2023-01-31T15:13:48.277Z,10.60
2023-01-31T15:16:20.703Z,11.97
2023-01-31T15:19:05.563Z,11.10
2023-01-31T15:21:47.657Z,10.63
2023-01-31T15:24:43.396Z,10.53
2023-01-31T15:27:24.562Z,10.63
2023-01-31T15:30:16.184Z,11.43
2023-01-31T15:33:02.437Z,11.70
2023-01-31T15:35:36.633Z,12.40
2023-01-31T15:38:26.862Z,12.30
2023-01-31T15:41:12.463Z,11.13
2023-01-31T15:43:39.688Z,12.47
2023-01-31T15:46:30.771Z,12.37
2023-01-31T15:48:59.137Z,11.97
2023-01-31T15:51:27.074Z,13.27
2023-01-31T15:54:08.404Z,12.53
2023-01-31T15:56:40.594Z,12.90
2023-01-31T15:59:14.437Z,12.03
2023-01-31T16:01:49.430Z,13.57
2023-01-31T16:04:16.306Z,12.67
2023-01-31T16:06:43.172Z,12.23
2023-01-31T16:09:25.048Z,11.23
2023-01-31T16:11:52.950Z,12.43
2023-01-31T16:14:21.774Z,13.07
2023-01-31T16:16:51.553Z,13.03
2023-01-31T16:19:25.787Z,11.87
2023-01-31T16:21:53.702Z,12.00
2023-01-31T16:24:22.645Z,11.60
2023-01-31T16:26:58.425Z,11.67
2023-01-31T16:29:47.047Z,11.93
2023-01-31T16:32:27.144Z,11.30
2023-01-31T16:35:00.033Z,10.17
2023-01-31T16:37:41.800Z,12.00
2023-01-31T16:40:09.004Z,10.90
2023-01-31T16:42:38.689Z,10.63
2023-01-31T16:45:35.071Z,11.23
2023-01-31T16:48:32.454Z,11.30
2023-01-31T16:51:20.082Z,11.80
2023-01-31T16:54:18.955Z,11.83
2023-01-31T16:57:06.787Z,12.87
2023-01-31T16:59:33.607Z,12.53
2023-01-31T17:02:13.379Z,13.07
2023-01-31T17:04:41.375Z,11.13
2023-01-31T17:07:17.569Z,12.63
2023-01-31T17:09:45.513Z,12.57
2023-01-31T17:12:25.251Z,11.90
2023-01-31T17:15:01.553Z,11.47
2023-01-31T17:17:35.031Z,11.60
2023-01-31T17:20:01.945Z,9.80
2023-01-31T17:22:28.976Z,11.87
2023-01-31T17:24:56.032Z,11.63
2023-01-31T17:27:23.276Z,9.93
2023-01-31T17:29:50.108Z,10.30
2023-01-31T17:32:20.348Z,11.17
2023-01-31T17:34:50.963Z,10.57
2023-01-31T17:37:30.130Z,19.40
2023-01-31T17:39:58.360Z,11.30
2023-01-31T17:42:25.165Z,24.63
2023-01-31T17:44:51.895Z,18.63
2023-01-31T17:47:18.740Z,9.27
2023-01-31T17:49:45.625Z,10.13
2023-01-31T17:52:12.615Z,10.93
2023-01-31T17:54:39.449Z,11.63
2023-01-31T17:57:06.270Z,10.30
2023-01-31T17:59:33.188Z,11.47
2023-01-31T18:02:00.624Z,11.23
2023-01-31T18:04:27.711Z,10.97
2023-01-31T18:06:54.842Z,10.33
2023-01-31T18:09:21.795Z,11.83
2023-01-31T18:11:48.803Z,11.43
2023-01-31T18:14:15.670Z,10.10
2023-01-31T18:16:42.624Z,9.80
2023-01-31T18:19:11.580Z,8.43
2023-01-31T18:21:43.890Z,7.87
2023-01-31T18:24:13.785Z,6.77
2023-01-31T18:26:40.749Z,7.70
2023-01-31T18:29:07.576Z,6.13
2023-01-31T18:31:34.538Z,5.73
2023-01-31T18:34:01.505Z,6.03
2023-01-31T18:36:28.323Z,7.10
2023-01-31T18:38:55.147Z,4.07
2023-01-31T18:41:22.017Z,4.67
2023-01-31T18:43:49.622Z,4.33
2023-01-31T18:46:17.213Z,4.70
2023-01-31T18:48:44.381Z,4.33
2023-01-31T18:51:13.332Z,3.87
2023-01-31T18:53:45.068Z,5.70
2023-01-31T18:56:15.233Z,4.60
2023-01-31T18:58:44.546Z,4.13
2023-01-31T19:01:19.704Z,3.90
2023-01-31T19:03:50.075Z,3.83
2023-01-31T19:06:20.454Z,3.40
2023-01-31T19:08:49.180Z,4.77
2023-01-31T19:11:17.130Z,5.60
2023-01-31T19:13:44.410Z,5.60
2023-01-31T19:16:26.615Z,6.50
2023-01-31T19:18:54.863Z,7.27
2023-01-31T19:21:27.590Z,6.63
2023-01-31T19:24:01.668Z,8.37
2023-01-31T19:26:29.925Z,8.70
2023-01-31T19:28:58.707Z,9.87
2023-01-31T19:31:28.045Z,9.77
2023-01-31T19:33:56.982Z,10.53
2023-01-31T19:36:32.715Z,10.23
2023-01-31T19:39:01.505Z,11.40
2023-01-31T19:41:28.957Z,11.17
2023-01-31T19:43:58.108Z,11.20
2023-01-31T19:46:27.497Z,11.57
2023-01-31T19:48:56.558Z,12.23
2023-01-31T19:51:25.164Z,13.97
2023-01-31T19:53:55.427Z,11.87
2023-01-31T19:56:24.329Z,11.17
2023-01-31T19:58:51.450Z,11.17
2023-01-31T20:01:18.836Z,11.10
2023-01-31T20:03:52.281Z,12.07
2023-01-31T20:06:21.767Z,11.17
2023-01-31T20:08:57.508Z,10.20
2023-01-31T20:11:25.587Z,12.03
2023-01-31T20:13:53.921Z,10.10
2023-01-31T20:16:21.916Z,10.17
2023-01-31T20:18:48.929Z,10.83
2023-01-31T20:21:18.955Z,9.07
2023-01-31T20:23:46.093Z,9.53
2023-01-31T20:26:14.825Z,10.03
2023-01-31T20:28:43.454Z,9.67
2023-01-31T20:31:18.303Z,10.13
2023-01-31T20:33:45.313Z,9.07
2023-01-31T20:36:12.722Z,8.40
2023-01-31T20:38:40.398Z,7.87
2023-01-31T20:41:08.720Z,8.80
2023-01-31T20:43:36.069Z,7.23
2023-01-31T20:46:08.178Z,6.53
2023-01-31T20:48:35.228Z,6.57
2023-01-31T20:51:02.106Z,6.03
2023-01-31T20:53:29.626Z,5.97
2023-01-31T20:56:02.912Z,5.70
2023-01-31T20:58:32.304Z,5.57
2023-01-31T21:01:00.205Z,6.00
2023-01-31T21:03:27.821Z,6.10
2023-01-31T21:05:56.857Z,5.73
2023-01-31T21:08:23.688Z,7.37
2023-01-31T21:10:52.110Z,7.50
2023-01-31T21:13:19.822Z,8.37
2023-01-31T21:15:54.922Z,7.93
2023-01-31T21:18:25.039Z,7.77
2023-01-31T21:20:52.141Z,7.17
2023-01-31T21:23:18.938Z,7.30
2023-01-31T21:25:45.993Z,7.87
2023-01-31T21:28:12.837Z,6.60
2023-01-31T21:30:40.268Z,6.67
2023-01-31T21:33:07.176Z,7.30
2023-01-31T21:35:34.195Z,6.70
2023-01-31T21:38:01.469Z,9.18
2023-01-31T21:40:28.707Z,9.17
2023-01-31T21:42:55.992Z,9.20
2023-01-31T21:45:39.674Z,9.13
2023-01-31T21:48:29.601Z,10.40
2023-01-31T21:50:59.646Z,9.80
2023-01-31T21:53:29.069Z,8.97
2023-01-31T21:56:10.000Z,11.20
2023-01-31T21:58:38.363Z,10.67
2023-01-31T22:01:12.865Z,11.33
2023-01-31T22:03:42.580Z,10.70
2023-01-31T22:06:10.645Z,10.80
2023-01-31T22:08:37.940Z,12.07
2023-01-31T22:11:06.553Z,11.17
2023-01-31T22:13:34.010Z,10.93
2023-01-31T22:16:01.722Z,12.20
2023-01-31T22:18:29.405Z,11.77
2023-01-31T22:21:02.837Z,12.77
2023-01-31T22:23:30.186Z,13.37
2023-01-31T22:25:57.819Z,12.40
2023-01-31T22:28:25.855Z,12.77
2023-01-31T22:30:53.841Z,12.50
2023-01-31T22:33:21.101Z,13.40
2023-01-31T22:35:48.283Z,17.60
2023-01-31T22:38:15.540Z,13.57
2023-01-31T22:40:45.007Z,13.20
2023-01-31T22:43:16.629Z,13.13
2023-01-31T22:45:47.657Z,12.60
2023-01-31T22:48:15.490Z,14.87
2023-01-31T22:50:43.160Z,12.43
2023-01-31T22:53:10.743Z,13.17
2023-01-31T22:55:41.322Z,13.93
2023-01-31T22:58:09.528Z,12.40
2023-01-31T23:00:37.188Z,12.87
2023-01-31T23:03:05.016Z,13.73
2023-01-31T23:05:32.161Z,14.70
2023-01-31T23:07:59.457Z,12.13
2023-01-31T23:10:27.529Z,16.47
2023-01-31T23:12:54.763Z,17.50
2023-01-31T23:15:21.978Z,13.70
2023-01-31T23:17:49.561Z,12.80
2023-01-31T23:20:18.093Z,15.77
2023-01-31T23:22:45.883Z,18.97
2023-01-31T23:25:14.622Z,18.40
2023-01-31T23:27:43.525Z,14.73
2023-01-31T23:30:11.844Z,13.30
2023-01-31T23:32:40.474Z,11.93
2023-01-31T23:35:09.446Z,11.50
2023-01-31T23:37:36.902Z,11.93
2023-01-31T23:40:05.637Z,9.83
2023-01-31T23:42:32.911Z,8.97
2023-01-31T23:45:00.094Z,8.87
2023-01-31T23:47:27.285Z,7.30
2023-01-31T23:49:54.546Z,7.40
2023-01-31T23:52:21.691Z,6.77
2023-01-31T23:54:48.845Z,5.67
2023-01-31T23:57:15.999Z,7.27
2023-01-31T23:59:43.236Z,6.77
